sensor_id;sensor_type;location;lat;lon;timestamp;temperature;humidity
68128;SHT30;54931;52.098;21.006;2023-12-28T00:00:06;0.14;86.44
68128;SHT30;54931;52.098;21.006;2023-12-28T00:02:56;0.11;86.55
68128;SHT30;54931;52.098;21.006;2023-12-28T00:05:24;0.09;86.49
68128;SHT30;54931;52.098;21.006;2023-12-28T00:07:52;0.05;86.58
68128;SHT30;54931;52.098;21.006;2023-12-28T00:10:25;0.03;86.57
68128;SHT30;54931;52.098;21.006;2023-12-28T00:12:54;0.03;86.64
68128;SHT30;54931;52.098;21.006;2023-12-28T00:15:22;0.02;86.93
68128;SHT30;54931;52.098;21.006;2023-12-28T00:17:50;0.02;86.78
68128;SHT30;54931;52.098;21.006;2023-12-28T00:20:18;0.02;87.03
68128;SHT30;54931;52.098;21.006;2023-12-28T00:22:45;0.02;87.44
68128;SHT30;54931;52.098;21.006;2023-12-28T00:25:13;0.03;87.25
68128;SHT30;54931;52.098;21.006;2023-12-28T00:27:41;0.03;87.17
68128;SHT30;54931;52.098;21.006;2023-12-28T00:30:09;0.02;87.15
68128;SHT30;54931;52.098;21.006;2023-12-28T00:32:37;0.03;87.34
68128;SHT30;54931;52.098;21.006;2023-12-28T00:35:05;0.05;87.45
68128;SHT30;54931;52.098;21.006;2023-12-28T00:37:34;0.05;87.38
68128;SHT30;54931;52.098;21.006;2023-12-28T00:40:02;0.07;87.48
68128;SHT30;54931;52.098;21.006;2023-12-28T00:42:31;0.05;87.65
68128;SHT30;54931;52.098;21.006;2023-12-28T00:44:59;0.05;87.69
68128;SHT30;54931;52.098;21.006;2023-12-28T00:47:29;0.07;87.80
68128;SHT30;54931;52.098;21.006;2023-12-28T00:49:57;0.08;87.64
68128;SHT30;54931;52.098;21.006;2023-12-28T00:52:25;0.09;87.60
68128;SHT30;54931;52.098;21.006;2023-12-28T00:54:53;0.08;87.62
68128;SHT30;54931;52.098;21.006;2023-12-28T00:57:21;0.09;87.54
68128;SHT30;54931;52.098;21.006;2023-12-28T00:59:48;0.10;87.43
68128;SHT30;54931;52.098;21.006;2023-12-28T01:02:16;0.10;87.44
68128;SHT30;54931;52.098;21.006;2023-12-28T01:04:44;0.10;87.27
68128;SHT30;54931;52.098;21.006;2023-12-28T01:07:12;0.08;87.40
68128;SHT30;54931;52.098;21.006;2023-12-28T01:09:39;0.08;87.35
68128;SHT30;54931;52.098;21.006;2023-12-28T01:12:07;0.07;87.46
68128;SHT30;54931;52.098;21.006;2023-12-28T01:14:35;0.06;87.45
68128;SHT30;54931;52.098;21.006;2023-12-28T01:17:02;0.05;87.39
68128;SHT30;54931;52.098;21.006;2023-12-28T01:19:31;0.03;87.53
68128;SHT30;54931;52.098;21.006;2023-12-28T01:21:58;0.03;87.58
68128;SHT30;54931;52.098;21.006;2023-12-28T01:24:26;0.02;87.61
68128;SHT30;54931;52.098;21.006;2023-12-28T01:26:54;0.02;87.61
68128;SHT30;54931;52.098;21.006;2023-12-28T01:29:21;0.04;87.66
68128;SHT30;54931;52.098;21.006;2023-12-28T01:31:49;0.04;87.43
68128;SHT30;54931;52.098;21.006;2023-12-28T01:34:17;0.05;87.53
68128;SHT30;54931;52.098;21.006;2023-12-28T01:36:45;0.08;87.44
68128;SHT30;54931;52.098;21.006;2023-12-28T01:39:12;0.13;87.40
68128;SHT30;54931;52.098;21.006;2023-12-28T01:41:43;0.16;87.43
68128;SHT30;54931;52.098;21.006;2023-12-28T01:44:13;0.21;87.31
68128;SHT30;54931;52.098;21.006;2023-12-28T01:46:40;0.23;87.09
68128;SHT30;54931;52.098;21.006;2023-12-28T01:49:09;0.23;86.91
68128;SHT30;54931;52.098;21.006;2023-12-28T01:51:37;0.24;86.82
68128;SHT30;54931;52.098;21.006;2023-12-28T01:54:06;0.23;86.70
68128;SHT30;54931;52.098;21.006;2023-12-28T01:56:34;0.22;86.70
68128;SHT30;54931;52.098;21.006;2023-12-28T01:59:02;0.24;86.66
68128;SHT30;54931;52.098;21.006;2023-12-28T02:01:31;0.26;86.57
68128;SHT30;54931;52.098;21.006;2023-12-28T02:03:59;0.27;86.49
68128;SHT30;54931;52.098;21.006;2023-12-28T02:06:27;0.27;86.40
68128;SHT30;54931;52.098;21.006;2023-12-28T02:08:55;0.28;86.35
68128;SHT30;54931;52.098;21.006;2023-12-28T02:11:23;0.28;86.26
68128;SHT30;54931;52.098;21.006;2023-12-28T02:13:51;0.28;86.17
68128;SHT30;54931;52.098;21.006;2023-12-28T02:16:21;0.26;86.12
68128;SHT30;54931;52.098;21.006;2023-12-28T02:19:00;0.26;86.10
68128;SHT30;54931;52.098;21.006;2023-12-28T02:21:46;0.27;86.12
68128;SHT30;54931;52.098;21.006;2023-12-28T02:24:16;0.30;86.04
68128;SHT30;54931;52.098;21.006;2023-12-28T02:26:44;0.32;85.95
68128;SHT30;54931;52.098;21.006;2023-12-28T02:29:11;0.38;85.81
68128;SHT30;54931;52.098;21.006;2023-12-28T02:31:42;0.42;85.51
68128;SHT30;54931;52.098;21.006;2023-12-28T02:34:27;0.48;85.43
68128;SHT30;54931;52.098;21.006;2023-12-28T02:37:05;0.51;85.26
68128;SHT30;54931;52.098;21.006;2023-12-28T02:39:34;0.56;85.00
68128;SHT30;54931;52.098;21.006;2023-12-28T02:42:05;0.59;84.91
68128;SHT30;54931;52.098;21.006;2023-12-28T02:44:33;0.60;84.81
68128;SHT30;54931;52.098;21.006;2023-12-28T02:47:00;0.60;84.76
68128;SHT30;54931;52.098;21.006;2023-12-28T02:49:28;0.63;84.70
68128;SHT30;54931;52.098;21.006;2023-12-28T02:51:56;0.65;84.59
68128;SHT30;54931;52.098;21.006;2023-12-28T02:54:23;0.71;84.46
68128;SHT30;54931;52.098;21.006;2023-12-28T02:56:51;0.77;84.33
68128;SHT30;54931;52.098;21.006;2023-12-28T02:59:19;0.83;84.21
68128;SHT30;54931;52.098;21.006;2023-12-28T03:01:47;0.88;83.80
68128;SHT30;54931;52.098;21.006;2023-12-28T03:04:15;0.93;83.80
68128;SHT30;54931;52.098;21.006;2023-12-28T03:06:45;0.98;83.36
68128;SHT30;54931;52.098;21.006;2023-12-28T03:09:14;1.03;83.11
68128;SHT30;54931;52.098;21.006;2023-12-28T03:11:42;1.07;82.73
68128;SHT30;54931;52.098;21.006;2023-12-28T03:14:10;1.07;82.51
68128;SHT30;54931;52.098;21.006;2023-12-28T03:16:38;1.06;82.43
68128;SHT30;54931;52.098;21.006;2023-12-28T03:19:06;1.05;82.38
68128;SHT30;54931;52.098;21.006;2023-12-28T03:21:38;1.01;82.17
68128;SHT30;54931;52.098;21.006;2023-12-28T03:24:07;0.99;82.10
68128;SHT30;54931;52.098;21.006;2023-12-28T03:26:38;0.97;82.15
68128;SHT30;54931;52.098;21.006;2023-12-28T03:29:07;0.93;82.18
68128;SHT30;54931;52.098;21.006;2023-12-28T03:31:38;0.91;82.19
68128;SHT30;54931;52.098;21.006;2023-12-28T03:34:07;0.88;82.18
68128;SHT30;54931;52.098;21.006;2023-12-28T03:36:35;0.86;82.21
68128;SHT30;54931;52.098;21.006;2023-12-28T03:39:03;0.83;82.18
68128;SHT30;54931;52.098;21.006;2023-12-28T03:41:31;0.82;81.99
68128;SHT30;54931;52.098;21.006;2023-12-28T03:43:59;0.83;81.90
68128;SHT30;54931;52.098;21.006;2023-12-28T03:46:28;0.82;81.94
68128;SHT30;54931;52.098;21.006;2023-12-28T03:48:55;0.80;81.72
68128;SHT30;54931;52.098;21.006;2023-12-28T03:51:23;0.82;81.51
68128;SHT30;54931;52.098;21.006;2023-12-28T03:53:51;0.83;81.35
68128;SHT30;54931;52.098;21.006;2023-12-28T03:56:23;0.83;81.28
68128;SHT30;54931;52.098;21.006;2023-12-28T03:58:53;0.82;81.23
68128;SHT30;54931;52.098;21.006;2023-12-28T04:01:21;0.82;81.02
68128;SHT30;54931;52.098;21.006;2023-12-28T04:03:51;0.83;81.07
68128;SHT30;54931;52.098;21.006;2023-12-28T04:06:18;0.80;81.14
68128;SHT30;54931;52.098;21.006;2023-12-28T04:08:46;0.76;81.16
68128;SHT30;54931;52.098;21.006;2023-12-28T04:11:14;0.76;81.12
68128;SHT30;54931;52.098;21.006;2023-12-28T04:14:01;0.75;81.03
68128;SHT30;54931;52.098;21.006;2023-12-28T04:16:49;0.77;80.97
68128;SHT30;54931;52.098;21.006;2023-12-28T04:19:36;0.75;80.94
68128;SHT30;54931;52.098;21.006;2023-12-28T04:22:24;0.74;80.88
68128;SHT30;54931;52.098;21.006;2023-12-28T04:24:52;0.75;80.85
68128;SHT30;54931;52.098;21.006;2023-12-28T04:27:41;0.73;80.85
68128;SHT30;54931;52.098;21.006;2023-12-28T04:30:29;0.72;80.86
68128;SHT30;54931;52.098;21.006;2023-12-28T04:32:57;0.72;80.89
68128;SHT30;54931;52.098;21.006;2023-12-28T04:35:25;0.70;80.87
68128;SHT30;54931;52.098;21.006;2023-12-28T04:37:53;0.68;80.90
68128;SHT30;54931;52.098;21.006;2023-12-28T04:40:20;0.66;80.91
68128;SHT30;54931;52.098;21.006;2023-12-28T04:42:48;0.65;80.92
68128;SHT30;54931;52.098;21.006;2023-12-28T04:45:16;0.62;80.97
68128;SHT30;54931;52.098;21.006;2023-12-28T04:47:44;0.61;81.01
68128;SHT30;54931;52.098;21.006;2023-12-28T04:50:11;0.60;81.04
68128;SHT30;54931;52.098;21.006;2023-12-28T04:52:40;0.57;81.10
68128;SHT30;54931;52.098;21.006;2023-12-28T04:55:08;0.55;81.18
68128;SHT30;54931;52.098;21.006;2023-12-28T04:57:35;0.53;81.20
68128;SHT30;54931;52.098;21.006;2023-12-28T05:00:04;0.53;81.20
68128;SHT30;54931;52.098;21.006;2023-12-28T05:02:34;0.53;81.20
68128;SHT30;54931;52.098;21.006;2023-12-28T05:05:02;0.54;81.19
68128;SHT30;54931;52.098;21.006;2023-12-28T05:07:31;0.52;81.19
68128;SHT30;54931;52.098;21.006;2023-12-28T05:09:59;0.52;81.15
68128;SHT30;54931;52.098;21.006;2023-12-28T05:12:27;0.52;81.10
68128;SHT30;54931;52.098;21.006;2023-12-28T05:14:55;0.51;81.10
68128;SHT30;54931;52.098;21.006;2023-12-28T05:17:22;0.53;81.01
68128;SHT30;54931;52.098;21.006;2023-12-28T05:19:50;0.55;80.95
68128;SHT30;54931;52.098;21.006;2023-12-28T05:22:17;0.57;80.79
68128;SHT30;54931;52.098;21.006;2023-12-28T05:24:45;0.57;80.74
68128;SHT30;54931;52.098;21.006;2023-12-28T05:27:12;0.58;80.69
68128;SHT30;54931;52.098;21.006;2023-12-28T05:29:40;0.59;80.61
68128;SHT30;54931;52.098;21.006;2023-12-28T05:32:08;0.62;80.49
68128;SHT30;54931;52.098;21.006;2023-12-28T05:34:36;0.63;80.36
68128;SHT30;54931;52.098;21.006;2023-12-28T05:37:05;0.65;80.31
68128;SHT30;54931;52.098;21.006;2023-12-28T05:39:33;0.66;80.17
68128;SHT30;54931;52.098;21.006;2023-12-28T05:42:01;0.72;79.94
68128;SHT30;54931;52.098;21.006;2023-12-28T05:44:29;0.75;79.90
68128;SHT30;54931;52.098;21.006;2023-12-28T05:46:56;0.74;79.88
68128;SHT30;54931;52.098;21.006;2023-12-28T05:49:24;0.75;79.86
68128;SHT30;54931;52.098;21.006;2023-12-28T05:51:52;0.76;79.83
68128;SHT30;54931;52.098;21.006;2023-12-28T05:54:19;0.76;79.85
68128;SHT30;54931;52.098;21.006;2023-12-28T05:56:47;0.75;79.88
68128;SHT30;54931;52.098;21.006;2023-12-28T05:59:16;0.75;79.89
68128;SHT30;54931;52.098;21.006;2023-12-28T06:01:44;0.75;79.88
68128;SHT30;54931;52.098;21.006;2023-12-28T06:04:12;0.77;79.84
68128;SHT30;54931;52.098;21.006;2023-12-28T06:06:40;0.78;79.78
68128;SHT30;54931;52.098;21.006;2023-12-28T06:09:08;0.80;79.73
68128;SHT30;54931;52.098;21.006;2023-12-28T06:11:36;0.82;79.73
68128;SHT30;54931;52.098;21.006;2023-12-28T06:14:04;0.81;79.73
68128;SHT30;54931;52.098;21.006;2023-12-28T06:16:31;0.83;79.66
68128;SHT30;54931;52.098;21.006;2023-12-28T06:19:00;0.85;79.59
68128;SHT30;54931;52.098;21.006;2023-12-28T06:21:28;0.87;79.51
68128;SHT30;54931;52.098;21.006;2023-12-28T06:23:57;0.88;79.47
68128;SHT30;54931;52.098;21.006;2023-12-28T06:26:25;0.89;79.40
68128;SHT30;54931;52.098;21.006;2023-12-28T06:28:52;0.88;79.43
68128;SHT30;54931;52.098;21.006;2023-12-28T06:31:20;0.88;79.50
68128;SHT30;54931;52.098;21.006;2023-12-28T06:33:48;0.88;79.53
68128;SHT30;54931;52.098;21.006;2023-12-28T06:36:17;0.90;79.57
68128;SHT30;54931;52.098;21.006;2023-12-28T06:38:46;0.90;79.60
68128;SHT30;54931;52.098;21.006;2023-12-28T06:41:13;0.88;79.61
68128;SHT30;54931;52.098;21.006;2023-12-28T06:43:41;0.86;79.76
68128;SHT30;54931;52.098;21.006;2023-12-28T06:46:09;0.88;79.80
68128;SHT30;54931;52.098;21.006;2023-12-28T06:48:36;0.89;79.80
68128;SHT30;54931;52.098;21.006;2023-12-28T06:51:07;0.88;79.87
68128;SHT30;54931;52.098;21.006;2023-12-28T06:53:35;0.90;79.84
68128;SHT30;54931;52.098;21.006;2023-12-28T06:56:03;0.92;79.90
68128;SHT30;54931;52.098;21.006;2023-12-28T06:58:31;0.95;79.89
68128;SHT30;54931;52.098;21.006;2023-12-28T07:00:59;0.96;79.90
68128;SHT30;54931;52.098;21.006;2023-12-28T07:03:29;1.02;80.09
68128;SHT30;54931;52.098;21.006;2023-12-28T07:05:59;1.09;80.01
68128;SHT30;54931;52.098;21.006;2023-12-28T07:08:27;1.18;79.82
68128;SHT30;54931;52.098;21.006;2023-12-28T07:10:55;1.24;79.54
68128;SHT30;54931;52.098;21.006;2023-12-28T07:13:24;1.29;79.39
68128;SHT30;54931;52.098;21.006;2023-12-28T07:15:52;1.33;79.31
68128;SHT30;54931;52.098;21.006;2023-12-28T07:18:20;1.35;79.26
68128;SHT30;54931;52.098;21.006;2023-12-28T07:20:48;1.39;79.16
68128;SHT30;54931;52.098;21.006;2023-12-28T07:23:16;1.44;79.16
68128;SHT30;54931;52.098;21.006;2023-12-28T07:25:44;1.50;79.07
68128;SHT30;54931;52.098;21.006;2023-12-28T07:28:12;1.56;78.91
68128;SHT30;54931;52.098;21.006;2023-12-28T07:30:40;1.65;78.80
68128;SHT30;54931;52.098;21.006;2023-12-28T07:33:08;1.77;78.69
68128;SHT30;54931;52.098;21.006;2023-12-28T07:35:36;2.01;78.30
68128;SHT30;54931;52.098;21.006;2023-12-28T07:38:04;2.33;77.55
68128;SHT30;54931;52.098;21.006;2023-12-28T07:40:33;2.66;76.76
68128;SHT30;54931;52.098;21.006;2023-12-28T07:43:01;2.87;75.65
68128;SHT30;54931;52.098;21.006;2023-12-28T07:45:29;2.92;75.39
68128;SHT30;54931;52.098;21.006;2023-12-28T07:47:58;3.06;75.50
68128;SHT30;54931;52.098;21.006;2023-12-28T07:50:27;3.38;75.14
68128;SHT30;54931;52.098;21.006;2023-12-28T07:52:55;3.60;74.52
68128;SHT30;54931;52.098;21.006;2023-12-28T07:55:23;3.79;73.45
68128;SHT30;54931;52.098;21.006;2023-12-28T07:57:51;4.02;72.84
68128;SHT30;54931;52.098;21.006;2023-12-28T08:00:20;4.28;72.52
68128;SHT30;54931;52.098;21.006;2023-12-28T08:02:48;4.39;72.11
68128;SHT30;54931;52.098;21.006;2023-12-28T08:05:16;4.39;71.66
68128;SHT30;54931;52.098;21.006;2023-12-28T08:07:44;4.56;71.99
68128;SHT30;54931;52.098;21.006;2023-12-28T08:10:12;4.85;71.45
68128;SHT30;54931;52.098;21.006;2023-12-28T08:12:40;5.05;70.74
68128;SHT30;54931;52.098;21.006;2023-12-28T08:15:08;5.27;71.01
68128;SHT30;54931;52.098;21.006;2023-12-28T08:17:36;5.48;70.47
68128;SHT30;54931;52.098;21.006;2023-12-28T08:20:05;5.83;70.34
68128;SHT30;54931;52.098;21.006;2023-12-28T08:22:34;6.12;69.94
68128;SHT30;54931;52.098;21.006;2023-12-28T08:25:02;6.04;69.41
68128;SHT30;54931;52.098;21.006;2023-12-28T08:27:30;6.04;69.60
68128;SHT30;54931;52.098;21.006;2023-12-28T08:29:58;6.24;69.10
68128;SHT30;54931;52.098;21.006;2023-12-28T08:32:27;6.39;68.30
68128;SHT30;54931;52.098;21.006;2023-12-28T08:34:55;6.60;68.65
68128;SHT30;54931;52.098;21.006;2023-12-28T08:37:22;6.78;67.57
68128;SHT30;54931;52.098;21.006;2023-12-28T08:39:50;6.80;67.22
68128;SHT30;54931;52.098;21.006;2023-12-28T08:42:18;6.95;67.74
68128;SHT30;54931;52.098;21.006;2023-12-28T08:44:45;6.92;67.03
68128;SHT30;54931;52.098;21.006;2023-12-28T08:47:13;6.71;67.28
68128;SHT30;54931;52.098;21.006;2023-12-28T08:49:41;6.56;67.94
68128;SHT30;54931;52.098;21.006;2023-12-28T08:52:09;6.46;68.12
68128;SHT30;54931;52.098;21.006;2023-12-28T08:54:37;6.47;68.48
68128;SHT30;54931;52.098;21.006;2023-12-28T08:57:08;6.46;68.48
68128;SHT30;54931;52.098;21.006;2023-12-28T08:59:39;6.43;68.54
68128;SHT30;54931;52.098;21.006;2023-12-28T09:02:09;6.42;68.83
68128;SHT30;54931;52.098;21.006;2023-12-28T09:04:40;6.40;68.64
68128;SHT30;54931;52.098;21.006;2023-12-28T09:07:08;6.41;68.91
68128;SHT30;54931;52.098;21.006;2023-12-28T09:09:37;6.41;69.21
68128;SHT30;54931;52.098;21.006;2023-12-28T09:12:05;6.41;69.01
68128;SHT30;54931;52.098;21.006;2023-12-28T09:14:33;6.43;69.60
68128;SHT30;54931;52.098;21.006;2023-12-28T09:17:01;6.45;69.45
68128;SHT30;54931;52.098;21.006;2023-12-28T09:19:29;6.48;69.59
68128;SHT30;54931;52.098;21.006;2023-12-28T09:21:57;6.51;69.59
68128;SHT30;54931;52.098;21.006;2023-12-28T09:24:25;6.53;69.15
68128;SHT30;54931;52.098;21.006;2023-12-28T09:26:52;6.61;69.49
68128;SHT30;54931;52.098;21.006;2023-12-28T09:29:20;6.69;69.52
68128;SHT30;54931;52.098;21.006;2023-12-28T09:31:48;6.77;69.47
68128;SHT30;54931;52.098;21.006;2023-12-28T09:34:16;6.85;69.47
68128;SHT30;54931;52.098;21.006;2023-12-28T09:36:44;6.91;69.25
68128;SHT30;54931;52.098;21.006;2023-12-28T11:55:21;7.57;75.86
68128;SHT30;54931;52.098;21.006;2023-12-28T11:57:54;7.57;76.12
68128;SHT30;54931;52.098;21.006;2023-12-28T12:00:23;7.56;76.29
68128;SHT30;54931;52.098;21.006;2023-12-28T12:02:54;7.56;76.50
68128;SHT30;54931;52.098;21.006;2023-12-28T12:05:24;7.52;76.84
68128;SHT30;54931;52.098;21.006;2023-12-28T12:07:54;7.51;76.99
68128;SHT30;54931;52.098;21.006;2023-12-28T12:10:23;7.48;77.08
68128;SHT30;54931;52.098;21.006;2023-12-28T12:12:53;7.47;77.23
68128;SHT30;54931;52.098;21.006;2023-12-28T12:15:23;7.46;77.20
68128;SHT30;54931;52.098;21.006;2023-12-28T12:17:52;7.46;77.17
68128;SHT30;54931;52.098;21.006;2023-12-28T12:20:21;7.45;77.08
68128;SHT30;54931;52.098;21.006;2023-12-28T12:22:51;7.47;76.90
68128;SHT30;54931;52.098;21.006;2023-12-28T12:25:20;7.50;76.80
68128;SHT30;54931;52.098;21.006;2023-12-28T12:27:48;7.53;76.55
68128;SHT30;54931;52.098;21.006;2023-12-28T12:30:16;7.55;76.30
68128;SHT30;54931;52.098;21.006;2023-12-28T12:32:48;7.59;76.12
68128;SHT30;54931;52.098;21.006;2023-12-28T12:35:17;7.64;75.57
68128;SHT30;54931;52.098;21.006;2023-12-28T12:37:49;7.69;75.17
68128;SHT30;54931;52.098;21.006;2023-12-28T12:40:19;7.74;75.24
68128;SHT30;54931;52.098;21.006;2023-12-28T12:42:53;7.78;75.06
68128;SHT30;54931;52.098;21.006;2023-12-28T12:45:22;7.82;74.96
68128;SHT30;54931;52.098;21.006;2023-12-28T12:47:52;7.86;74.33
68128;SHT30;54931;52.098;21.006;2023-12-28T12:50:21;7.90;74.37
68128;SHT30;54931;52.098;21.006;2023-12-28T12:52:49;7.93;74.26
68128;SHT30;54931;52.098;21.006;2023-12-28T12:55:18;7.95;74.05
68128;SHT30;54931;52.098;21.006;2023-12-28T12:57:47;7.98;73.49
68128;SHT30;54931;52.098;21.006;2023-12-28T13:00:16;8.00;73.31
68128;SHT30;54931;52.098;21.006;2023-12-28T13:02:46;8.03;73.11
68128;SHT30;54931;52.098;21.006;2023-12-28T13:05:17;8.05;72.99
68128;SHT30;54931;52.098;21.006;2023-12-28T13:07:45;8.07;71.97
68128;SHT30;54931;52.098;21.006;2023-12-28T13:10:14;8.14;71.75
68128;SHT30;54931;52.098;21.006;2023-12-28T13:12:43;8.18;71.77
68128;SHT30;54931;52.098;21.006;2023-12-28T13:15:11;8.23;71.38
68128;SHT30;54931;52.098;21.006;2023-12-28T13:17:41;8.27;71.41
68128;SHT30;54931;52.098;21.006;2023-12-28T13:20:10;8.31;70.94
68128;SHT30;54931;52.098;21.006;2023-12-28T13:22:40;8.34;70.76
68128;SHT30;54931;52.098;21.006;2023-12-28T13:25:08;8.36;70.48
68128;SHT30;54931;52.098;21.006;2023-12-28T13:27:38;8.39;70.56
68128;SHT30;54931;52.098;21.006;2023-12-28T13:30:06;8.39;70.29
68128;SHT30;54931;52.098;21.006;2023-12-28T13:32:36;8.40;70.19
68128;SHT30;54931;52.098;21.006;2023-12-28T13:35:05;8.40;70.43
68128;SHT30;54931;52.098;21.006;2023-12-28T13:37:35;8.40;70.60
68128;SHT30;54931;52.098;21.006;2023-12-28T13:40:05;8.38;70.09
68128;SHT30;54931;52.098;21.006;2023-12-28T13:42:34;8.40;70.19
68128;SHT30;54931;52.098;21.006;2023-12-28T13:45:03;8.41;70.32
68128;SHT30;54931;52.098;21.006;2023-12-28T13:47:32;8.42;70.50
68128;SHT30;54931;52.098;21.006;2023-12-28T13:50:01;8.41;70.70
68128;SHT30;54931;52.098;21.006;2023-12-28T13:52:30;8.41;70.85
68128;SHT30;54931;52.098;21.006;2023-12-28T13:54:59;8.40;71.14
68128;SHT30;54931;52.098;21.006;2023-12-28T13:57:28;8.39;71.30
68128;SHT30;54931;52.098;21.006;2023-12-28T13:59:57;8.38;71.39
68128;SHT30;54931;52.098;21.006;2023-12-28T14:02:29;8.36;71.41
68128;SHT30;54931;52.098;21.006;2023-12-28T14:04:58;8.32;71.43
68128;SHT30;54931;52.098;21.006;2023-12-28T14:07:27;8.29;71.49
68128;SHT30;54931;52.098;21.006;2023-12-28T14:09:56;8.24;71.53
68128;SHT30;54931;52.098;21.006;2023-12-28T14:12:25;8.19;71.60
68128;SHT30;54931;52.098;21.006;2023-12-28T14:14:53;8.16;71.70
68128;SHT30;54931;52.098;21.006;2023-12-28T14:17:23;8.13;71.78
68128;SHT30;54931;52.098;21.006;2023-12-28T14:19:53;8.12;71.83
68128;SHT30;54931;52.098;21.006;2023-12-28T14:22:21;8.10;71.99
68128;SHT30;54931;52.098;21.006;2023-12-28T14:24:50;8.08;72.09
68128;SHT30;54931;52.098;21.006;2023-12-28T14:27:20;8.07;72.14
68128;SHT30;54931;52.098;21.006;2023-12-28T14:29:50;8.06;72.24
68128;SHT30;54931;52.098;21.006;2023-12-28T14:32:19;8.04;72.35
68128;SHT30;54931;52.098;21.006;2023-12-28T14:34:49;8.03;72.45
68128;SHT30;54931;52.098;21.006;2023-12-28T14:37:19;8.02;72.52
68128;SHT30;54931;52.098;21.006;2023-12-28T14:39:47;8.02;72.55
68128;SHT30;54931;52.098;21.006;2023-12-28T14:42:16;8.02;72.66
68128;SHT30;54931;52.098;21.006;2023-12-28T14:44:44;8.02;72.72
68128;SHT30;54931;52.098;21.006;2023-12-28T14:47:14;8.01;72.80
68128;SHT30;54931;52.098;21.006;2023-12-28T14:49:43;8.02;72.80
68128;SHT30;54931;52.098;21.006;2023-12-28T14:52:13;8.03;72.68
68128;SHT30;54931;52.098;21.006;2023-12-28T14:54:42;8.03;72.70
68128;SHT30;54931;52.098;21.006;2023-12-28T14:57:12;8.02;72.62
68128;SHT30;54931;52.098;21.006;2023-12-28T14:59:41;7.99;72.43
68128;SHT30;54931;52.098;21.006;2023-12-28T15:02:10;7.93;72.37
68128;SHT30;54931;52.098;21.006;2023-12-28T15:04:39;7.86;72.32
68128;SHT30;54931;52.098;21.006;2023-12-28T15:07:09;7.84;72.36
68128;SHT30;54931;52.098;21.006;2023-12-28T15:09:39;7.81;72.38
68128;SHT30;54931;52.098;21.006;2023-12-28T15:12:10;7.81;72.40
68128;SHT30;54931;52.098;21.006;2023-12-28T15:14:38;7.81;72.38
68128;SHT30;54931;52.098;21.006;2023-12-28T15:17:07;7.81;72.33
68128;SHT30;54931;52.098;21.006;2023-12-28T15:19:38;7.83;72.14
68128;SHT30;54931;52.098;21.006;2023-12-28T15:22:06;7.84;72.09
68128;SHT30;54931;52.098;21.006;2023-12-28T15:24:35;7.85;72.06
68128;SHT30;54931;52.098;21.006;2023-12-28T15:27:04;7.85;71.90
68128;SHT30;54931;52.098;21.006;2023-12-28T15:29:34;7.83;71.88
68128;SHT30;54931;52.098;21.006;2023-12-28T15:32:03;7.78;71.87
68128;SHT30;54931;52.098;21.006;2023-12-28T15:34:31;7.69;71.88
68128;SHT30;54931;52.098;21.006;2023-12-28T15:36:58;7.58;72.02
68128;SHT30;54931;52.098;21.006;2023-12-28T15:39:26;7.44;72.21
68128;SHT30;54931;52.098;21.006;2023-12-28T15:41:54;7.33;72.40
68128;SHT30;54931;52.098;21.006;2023-12-28T15:44:21;7.20;72.59
68128;SHT30;54931;52.098;21.006;2023-12-28T15:46:49;7.08;72.89
68128;SHT30;54931;52.098;21.006;2023-12-28T15:49:17;6.95;73.22
68128;SHT30;54931;52.098;21.006;2023-12-28T15:51:46;6.86;73.46
68128;SHT30;54931;52.098;21.006;2023-12-28T15:54:14;6.76;73.73
68128;SHT30;54931;52.098;21.006;2023-12-28T15:56:42;6.64;73.90
68128;SHT30;54931;52.098;21.006;2023-12-28T15:59:10;6.53;74.14
68128;SHT30;54931;52.098;21.006;2023-12-28T16:01:37;6.42;74.46
68128;SHT30;54931;52.098;21.006;2023-12-28T16:04:05;6.31;74.64
68128;SHT30;54931;52.098;21.006;2023-12-28T16:06:34;6.20;74.92
68128;SHT30;54931;52.098;21.006;2023-12-28T16:09:02;6.13;75.33
68128;SHT30;54931;52.098;21.006;2023-12-28T16:11:33;6.07;75.51
68128;SHT30;54931;52.098;21.006;2023-12-28T16:14:01;6.01;75.65
68128;SHT30;54931;52.098;21.006;2023-12-28T16:16:30;5.93;75.81
68128;SHT30;54931;52.098;21.006;2023-12-28T16:18:58;5.86;75.93
68128;SHT30;54931;52.098;21.006;2023-12-28T16:21:27;5.79;76.14
68128;SHT30;54931;52.098;21.006;2023-12-28T16:23:58;5.73;76.30
68128;SHT30;54931;52.098;21.006;2023-12-28T16:26:26;5.68;76.61
68128;SHT30;54931;52.098;21.006;2023-12-28T16:28:54;5.65;76.70
68128;SHT30;54931;52.098;21.006;2023-12-28T16:31:22;5.62;76.81
68128;SHT30;54931;52.098;21.006;2023-12-28T16:33:49;5.58;76.85
68128;SHT30;54931;52.098;21.006;2023-12-28T16:36:17;5.53;76.89
68128;SHT30;54931;52.098;21.006;2023-12-28T16:38:45;5.47;76.95
68128;SHT30;54931;52.098;21.006;2023-12-28T16:41:12;5.40;77.11
68128;SHT30;54931;52.098;21.006;2023-12-28T16:43:40;5.34;77.30
68128;SHT30;54931;52.098;21.006;2023-12-28T16:46:08;5.30;77.54
68128;SHT30;54931;52.098;21.006;2023-12-28T16:48:36;5.29;77.85
68128;SHT30;54931;52.098;21.006;2023-12-28T16:51:06;5.31;78.00
68128;SHT30;54931;52.098;21.006;2023-12-28T16:53:36;5.31;77.90
68128;SHT30;54931;52.098;21.006;2023-12-28T16:56:04;5.30;77.86
68128;SHT30;54931;52.098;21.006;2023-12-28T16:58:32;5.27;77.94
68128;SHT30;54931;52.098;21.006;2023-12-28T17:01:00;5.24;78.07
68128;SHT30;54931;52.098;21.006;2023-12-28T17:03:28;5.22;78.24
68128;SHT30;54931;52.098;21.006;2023-12-28T17:05:55;5.22;78.34
68128;SHT30;54931;52.098;21.006;2023-12-28T17:08:23;5.20;78.34
68128;SHT30;54931;52.098;21.006;2023-12-28T17:10:51;5.19;78.36
68128;SHT30;54931;52.098;21.006;2023-12-28T17:13:19;5.17;78.57
68128;SHT30;54931;52.098;21.006;2023-12-28T17:15:49;5.20;78.72
68128;SHT30;54931;52.098;21.006;2023-12-28T17:18:19;5.22;78.55
68128;SHT30;54931;52.098;21.006;2023-12-28T17:20:47;5.22;78.65
68128;SHT30;54931;52.098;21.006;2023-12-28T17:23:18;5.21;78.58
68128;SHT30;54931;52.098;21.006;2023-12-28T17:26:03;5.19;78.50
68128;SHT30;54931;52.098;21.006;2023-12-28T17:31:34;5.11;78.52
68128;SHT30;54931;52.098;21.006;2023-12-28T17:34:04;5.07;78.77
68128;SHT30;54931;52.098;21.006;2023-12-28T17:36:33;5.06;78.81
68128;SHT30;54931;52.098;21.006;2023-12-28T17:39:02;5.04;78.91
68128;SHT30;54931;52.098;21.006;2023-12-28T17:41:38;5.05;78.96
68128;SHT30;54931;52.098;21.006;2023-12-28T17:44:22;5.04;79.00
68128;SHT30;54931;52.098;21.006;2023-12-28T17:46:56;5.04;78.96
68128;SHT30;54931;52.098;21.006;2023-12-28T17:49:27;5.00;78.93
68128;SHT30;54931;52.098;21.006;2023-12-28T17:51:58;4.95;79.05
68128;SHT30;54931;52.098;21.006;2023-12-28T17:54:31;4.90;79.07
68128;SHT30;54931;52.098;21.006;2023-12-28T17:56:59;4.86;79.28
68128;SHT30;54931;52.098;21.006;2023-12-28T17:59:28;4.82;79.31